Windthorst, TX

1:42 PM CDT on September 18, 2014 (GMT -0500)
Archer City | Change Station
CLOSE
Current Station
Personal Weather Station
Location: Archer City, TX
Elevation: 1089 ft
Nearby Weather Stations

Elev 1089 ft 33.58 °N, 98.63 °W | Updated 10 seconds ago

Overcast
Overcast
75.4 °F
Feels Like 76 °F
N
9.2
Wind Variable Wind from NE
Gusts 21.3 mph

Today
High -- | Low -- °F
--% Chance of Precip.
Yesterday
High -- | Low -- °F
Precip. -- in
7:19 AM 7:35 PM
Waning Crescent, 25% visible
Pressure 29.96 in
Visibility 10.0 miles
Clouds Mostly Cloudy 2100 ft
Overcast 2900 ft
Heat Index 76 °F
Dew Point 69 °F
Humidity 81%
Rainfall 0.00 in
Snow Depth Not available.
UV 3 out of 12
Pollen 9.90 out of 12
Air Quality Not available.
Flu Activity Not available.
METAR KCWC 181835Z AUTO 07015G22KT 10SM BKN021 OVC029 25/19 A2996 RMK AO2 LTG DSNT S T02460186

More Conditions Fewer Conditions

Pressure 29.96 in
Visibility 10.0 miles
Clouds Mostly Cloudy 2100 ft
Overcast 2900 ft
Heat Index 76 °F
Dew Point 69 °F
Humidity 81%
Rainfall 0.00 in
Snow Depth Not available.
UV 3 out of 12
Pollen 9.90 out of 12
Air Quality Not available.
Flu Activity Not available.
METAR KCWC 181835Z AUTO 07015G22KT 10SM BKN021 OVC029 25/19 A2996 RMK AO2 LTG DSNT S T02460186

More Conditions Fewer Conditions

10-Day Weather Forecast

Almanac

Astronomy

Sep. 18, 2014 Rise Set
Actual Time 7:19 AM CDT 7:35 PM CDT
Civil Twilight 6:54 AM CDT 8:00 PM CDT
Nautical Twilight 6:25 AM CDT 8:29 PM CDT
Astronomical Twilight 5:55 AM CDT 8:59 PM CDT
Moon 2:23 AM CDT 4:17 PM CDT
Length of Visible Light 13h 06m
Length of Day
12h 16m
Tomorrow will be 2m 3s shorter.
Waning Crescent, 25% of the Moon is Illuminated
Today
Waning Crescent
Sep 24
New
Oct 1
First Quarter
Oct 8
Full
Oct 15
Last Quarter

Today's Extremes

State Highs State Lows

Community

WunderPhotos

Upload Photos

1,754,417 photos uploaded!

WunderBlogs® & News

Nearby

Snow Depth

Station Depth Elevation
No new snow has been reported.

Earthquake Activity

City Distance Mag. Time & Date
No recent earthquake activity has been reported nearby.
Minimum magnitude displayed is 2.5.

Coastal Water Temperatures

Place Temperature
No Stations Reporting

Nearby Weather Stations